Time;durP1;ratioP1;P1;durP2;ratioP2;P2;SDS_P1;SDS_P2;PMS_P1;PMS_P2;Temp;Humidity;BMP_temperature;BMP_pressure;BME280_temperature;BME280_humidity;BME280_pressure;Samples;Min_cycle;Max_cycle;Signal;HPM_P1;HPM_P2
2021/11/06 00:01:12;;;;;;;46.95;35.05;;;;;;;;;;10284651;28;20536;-59
2021/11/06 00:06:10;;;;;;;44.92;34.25;;;;;;;;;;10278886;28;20087;-58
2021/11/06 00:11:09;;;;;;;46.33;36.42;;;;;;;;;;10289112;28;20083;-60
2021/11/06 00:16:08;;;;;;;44.22;34.47;;;;;;;;;;10285376;28;20395;-57
2021/11/06 00:21:07;;;;;;;41.42;34.20;;;;;;;;;;10295000;28;20068;-57
2021/11/06 00:26:05;;;;;;;46.60;34.60;;;;;;;;;;10286885;28;20501;-57
2021/11/06 00:31:03;;;;;;;40.13;32.53;;;;;;;;;;10296944;28;20433;-56
2021/11/06 00:36:03;;;;;;;46.78;32.92;;;;;;;;;;10285693;28;20077;-56
2021/11/06 00:41:01;;;;;;;43.10;32.10;;;;;;;;;;10284881;28;20083;-58
2021/11/06 00:46:00;;;;;;;37.28;31.75;;;;;;;;;;10291171;28;20080;-56
2021/11/06 00:50:58;;;;;;;45.63;32.20;;;;;;;;;;10285097;28;20084;-57
2021/11/06 00:55:58;;;;;;;38.83;32.20;;;;;;;;;;10289394;28;20041;-57
2021/11/06 01:00:56;;;;;;;38.53;30.08;;;;;;;;;;10274494;28;20177;-56
2021/11/06 01:05:54;;;;;;;39.70;31.20;;;;;;;;;;10296022;28;20076;-58
2021/11/06 01:10:53;;;;;;;43.60;30.60;;;;;;;;;;10279274;28;20083;-51
2021/11/06 01:15:53;;;;;;;38.10;31.60;;;;;;;;;;10283053;28;20072;-54
2021/11/06 01:20:51;;;;;;;41.95;32.55;;;;;;;;;;10291065;28;20498;-56
2021/11/06 01:25:49;;;;;;;37.80;31.60;;;;;;;;;;10276693;28;20076;-58
2021/11/06 01:30:47;;;;;;;42.78;33.78;;;;;;;;;;10286096;28;20529;-58
2021/11/06 01:35:48;;;;;;;37.22;31.35;;;;;;;;;;10281438;28;20052;-58
2021/11/06 01:40:47;;;;;;;41.22;32.20;;;;;;;;;;10284180;28;20083;-59
2021/11/06 01:45:45;;;;;;;38.78;31.45;;;;;;;;;;10282873;28;20083;-58
2021/11/06 01:50:44;;;;;;;39.28;31.52;;;;;;;;;;10280506;28;20072;-58
2021/11/06 01:55:43;;;;;;;37.25;31.58;;;;;;;;;;10297921;28;20103;-58
2021/11/06 02:00:42;;;;;;;38.40;31.35;;;;;;;;;;10300593;28;20102;-58
2021/11/06 02:05:40;;;;;;;38.45;31.00;;;;;;;;;;10282259;28;20123;-58
2021/11/06 02:10:40;;;;;;;43.88;33.72;;;;;;;;;;10287651;28;20087;-54
2021/11/06 02:15:40;;;;;;;41.47;32.22;;;;;;;;;;10291936;28;20099;-57
2021/11/06 02:20:38;;;;;;;41.85;33.15;;;;;;;;;;10291576;28;20072;-55
2021/11/06 02:25:38;;;;;;;39.85;33.05;;;;;;;;;;10291313;28;20081;-58
2021/11/06 02:30:56;;;;;;;43.63;31.88;;;;;;;;;;10290349;28;20115;-58
2021/11/06 02:35:55;;;;;;;43.03;33.42;;;;;;;;;;10293030;28;20079;-58
2021/11/06 02:40:54;;;;;;;38.60;32.17;;;;;;;;;;10287088;28;20072;-54
2021/11/06 02:45:53;;;;;;;42.88;33.03;;;;;;;;;;10290770;28;20466;-56
2021/11/06 02:50:51;;;;;;;41.17;32.75;;;;;;;;;;10280590;28;20084;-55
2021/11/06 02:55:50;;;;;;;44.60;33.35;;;;;;;;;;10301003;28;20060;-57
2021/11/06 03:00:50;;;;;;;40.72;33.55;;;;;;;;;;10289401;28;20073;-56
2021/11/06 03:05:48;;;;;;;45.30;35.38;;;;;;;;;;10296264;28;20077;-57
2021/11/06 03:10:46;;;;;;;39.67;33.33;;;;;;;;;;10284755;28;20045;-58
2021/11/06 03:15:45;;;;;;;46.28;37.05;;;;;;;;;;10289646;28;20084;-57
2021/11/06 03:20:44;;;;;;;38.92;34.60;;;;;;;;;;10288929;28;20071;-58
2021/11/06 03:25:43;;;;;;;39.03;33.83;;;;;;;;;;10287704;28;20092;-58
2021/11/06 03:30:41;;;;;;;41.28;34.15;;;;;;;;;;10288651;28;20064;-58
2021/11/06 03:35:39;;;;;;;38.90;34.33;;;;;;;;;;10289163;28;20080;-58
2021/11/06 03:40:39;;;;;;;40.50;33.38;;;;;;;;;;10291197;28;20462;-57
2021/11/06 03:45:37;;;;;;;47.67;34.00;;;;;;;;;;10282859;28;20497;-57
2021/11/06 03:50:36;;;;;;;40.40;33.17;;;;;;;;;;10288321;28;20493;-58
2021/11/06 03:55:34;;;;;;;42.17;33.05;;;;;;;;;;10298177;28;20072;-58
2021/11/06 04:00:34;;;;;;;40.88;33.45;;;;;;;;;;10294747;28;20094;-57
2021/11/06 04:05:32;;;;;;;40.92;33.95;;;;;;;;;;10295471;28;20080;-58
2021/11/06 04:10:30;;;;;;;43.38;35.05;;;;;;;;;;10281946;28;20069;-58
2021/11/06 04:15:29;;;;;;;42.97;34.55;;;;;;;;;;10306414;28;20076;-58
2021/11/06 04:20:28;;;;;;;41.90;34.17;;;;;;;;;;10295853;28;20071;-58
2021/11/06 04:25:27;;;;;;;44.45;34.90;;;;;;;;;;10296079;28;20088;-58
2021/11/06 04:30:25;;;;;;;42.85;34.35;;;;;;;;;;10287561;28;20746;-58
2021/11/06 04:35:23;;;;;;;43.28;35.33;;;;;;;;;;10289969;28;20049;-57
2021/11/06 04:40:28;;;;;;;42.42;34.50;;;;;;;;;;10285424;28;20509;-58
2021/11/06 04:45:26;;;;;;;41.97;34.50;;;;;;;;;;10296948;28;20069;-58
2021/11/06 04:50:24;;;;;;;44.72;35.10;;;;;;;;;;10286560;28;20079;-57
2021/11/06 04:55:23;;;;;;;42.00;34.17;;;;;;;;;;10275488;28;20143;-58
2021/11/06 05:00:23;;;;;;;40.85;32.92;;;;;;;;;;10290984;28;20083;-57
2021/11/06 05:05:22;;;;;;;40.20;33.73;;;;;;;;;;10289158;28;20045;-58
2021/11/06 05:10:25;;;;;;;45.53;37.80;;;;;;;;;;10295707;28;20087;-58
2021/11/06 05:15:25;;;;;;;43.85;35.40;;;;;;;;;;10292989;28;20072;-58
2021/11/06 05:20:24;;;;;;;41.70;34.55;;;;;;;;;;10301822;28;20067;-56
2021/11/06 05:25:22;;;;;;;54.17;33.78;;;;;;;;;;10294926;28;20079;-59
2021/11/06 05:30:20;;;;;;;39.17;31.80;;;;;;;;;;10296491;28;20095;-59
2021/11/06 05:35:20;;;;;;;39.90;31.77;;;;;;;;;;10290526;28;20072;-56
2021/11/06 05:40:19;;;;;;;45.38;33.30;;;;;;;;;;10293583;28;20568;-58
2021/11/06 05:45:18;;;;;;;38.75;32.80;;;;;;;;;;10285309;28;20060;-57
2021/11/06 05:50:16;;;;;;;39.10;29.85;;;;;;;;;;10300488;28;20497;-57
2021/11/06 05:55:16;;;;;;;35.95;29.75;;;;;;;;;;10292880;28;20045;-58
2021/11/06 06:00:16;;;;;;;39.17;30.92;;;;;;;;;;10293220;28;20057;-57
2021/11/06 06:05:15;;;;;;;33.90;30.20;;;;;;;;;;10291022;28;20475;-57
2021/11/06 06:10:14;;;;;;;40.15;31.60;;;;;;;;;;10282822;28;20065;-55
2021/11/06 06:15:14;;;;;;;44.75;36.22;;;;;;;;;;10287919;28;20526;-56
2021/11/06 06:20:13;;;;;;;58.63;42.22;;;;;;;;;;10281779;28;20528;-57
2021/11/06 06:25:11;;;;;;;58.35;43.10;;;;;;;;;;10281377;28;20078;-58
2021/11/06 06:30:11;;;;;;;62.35;46.63;;;;;;;;;;10286519;28;20068;-56
2021/11/06 06:35:11;;;;;;;51.13;39.55;;;;;;;;;;10279579;28;20079;-57
2021/11/06 06:40:10;;;;;;;44.53;35.08;;;;;;;;;;10281245;28;20061;-56
2021/11/06 06:45:08;;;;;;;33.78;29.35;;;;;;;;;;10287831;28;20558;-58
2021/11/06 06:50:07;;;;;;;39.60;31.25;;;;;;;;;;10283918;28;20484;-58
2021/11/06 06:55:08;;;;;;;33.63;26.13;;;;;;;;;;10278667;28;20067;-57
2021/11/06 07:00:07;;;;;;;41.92;34.78;;;;;;;;;;10288480;28;20077;-58
2021/11/06 07:05:06;;;;;;;41.17;34.85;;;;;;;;;;10278107;28;20087;-57
2021/11/06 07:10:05;;;;;;;38.60;34.25;;;;;;;;;;10277532;28;20489;-58
2021/11/06 07:15:06;;;;;;;42.75;30.33;;;;;;;;;;10277271;28;20438;-58
2021/11/06 07:20:06;;;;;;;39.05;30.90;;;;;;;;;;10284199;28;20080;-54
2021/11/06 07:25:05;;;;;;;35.00;29.35;;;;;;;;;;10283435;28;20075;-56
2021/11/06 07:30:05;;;;;;;39.00;33.45;;;;;;;;;;10274806;28;20076;-57
2021/11/06 07:35:04;;;;;;;37.22;29.33;;;;;;;;;;10278415;28;20088;-55
2021/11/06 07:40:03;;;;;;;38.30;29.77;;;;;;;;;;10278042;28;20064;-57
2021/11/06 07:45:01;;;;;;;36.92;27.67;;;;;;;;;;10275943;28;20069;-58
2021/11/06 07:50:01;;;;;;;32.92;26.50;;;;;;;;;;10278690;28;20072;-59
2021/11/06 07:54:59;;;;;;;67.40;54.65;;;;;;;;;;10278751;28;20065;-58
2021/11/06 07:59:58;;;;;;;31.35;22.08;;;;;;;;;;10280212;28;20068;-58
2021/11/06 08:04:56;;;;;;;27.13;23.02;;;;;;;;;;10263328;28;20132;-58
2021/11/06 08:09:56;;;;;;;34.15;27.70;;;;;;;;;;10274136;28;20512;-58
2021/11/06 08:14:54;;;;;;;29.77;23.50;;;;;;;;;;10278478;28;20490;-58
2021/11/06 08:19:55;;;;;;;28.55;23.65;;;;;;;;;;10275673;28;20061;-55
2021/11/06 08:24:56;;;;;;;33.78;23.63;;;;;;;;;;10281924;28;20071;-59
2021/11/06 08:29:55;;;;;;;32.60;23.85;;;;;;;;;;10277576;28;20076;-57
2021/11/06 08:34:53;;;;;;;31.35;24.80;;;;;;;;;;10278309;28;20095;-57
2021/11/06 08:39:52;;;;;;;38.45;31.15;;;;;;;;;;10274191;28;20075;-54
2021/11/06 08:44:51;;;;;;;35.22;26.13;;;;;;;;;;10273493;28;20150;-57
2021/11/06 08:49:50;;;;;;;32.33;24.58;;;;;;;;;;10286502;28;20508;-56
2021/11/06 08:54:49;;;;;;;34.70;26.02;;;;;;;;;;10287491;28;20068;-57
2021/11/06 08:59:49;;;;;;;32.42;23.92;;;;;;;;;;10278435;28;20087;-58
2021/11/06 09:04:49;;;;;;;30.88;24.27;;;;;;;;;;10278324;28;20080;-57
2021/11/06 09:09:48;;;;;;;30.52;22.65;;;;;;;;;;10298749;28;20068;-57
2021/11/06 09:14:46;;;;;;;29.70;24.25;;;;;;;;;;10283705;28;20079;-54
2021/11/06 09:19:44;;;;;;;33.85;30.17;;;;;;;;;;10281968;28;20517;-53
2021/11/06 09:24:44;;;;;;;35.65;26.42;;;;;;;;;;10285152;28;20088;-57
2021/11/06 09:29:43;;;;;;;30.80;26.13;;;;;;;;;;10281214;28;20867;-54
2021/11/06 09:34:42;;;;;;;40.42;27.90;;;;;;;;;;10283109;28;20076;-54
2021/11/06 09:39:40;;;;;;;35.38;29.05;;;;;;;;;;10279213;28;21247;-56
2021/11/06 09:44:40;;;;;;;34.88;27.30;;;;;;;;;;10271205;28;20060;-53
2021/11/06 09:49:39;;;;;;;37.97;26.88;;;;;;;;;;10285079;28;20068;-53
2021/11/06 09:54:38;;;;;;;41.97;29.63;;;;;;;;;;10270636;28;20540;-57
2021/11/06 09:59:36;;;;;;;46.20;34.92;;;;;;;;;;10283843;28;20077;-57
2021/11/06 10:04:37;;;;;;;47.25;34.67;;;;;;;;;;10284764;28;20684;-54
2021/11/06 10:09:36;;;;;;;42.85;33.50;;;;;;;;;;10286013;28;20087;-55
2021/11/06 10:14:36;;;;;;;40.03;34.60;;;;;;;;;;10280594;28;20509;-57
2021/11/06 10:19:39;;;;;;;44.60;35.67;;;;;;;;;;10295039;28;20076;-56
2021/11/06 10:24:38;;;;;;;43.25;33.58;;;;;;;;;;10311397;28;20531;-57
2021/11/06 10:29:39;;;;;;;48.92;32.80;;;;;;;;;;10298556;28;20075;-55
2021/11/06 10:34:40;;;;;;;47.17;36.60;;;;;;;;;;10286078;28;20080;-57
2021/11/06 10:39:52;;;;;;;52.78;41.95;;;;;;;;;;10291289;28;20110;-58
2021/11/06 10:44:51;;;;;;;54.53;41.50;;;;;;;;;;10290525;28;20073;-57
2021/11/06 10:49:50;;;;;;;51.58;42.15;;;;;;;;;;10298457;28;20083;-57
2021/11/06 10:55:02;;;;;;;52.17;37.83;;;;;;;;;;10289912;28;20064;-58
2021/11/06 11:00:09;;;;;;;45.22;38.40;;;;;;;;;;10289861;28;20083;-58
2021/11/06 11:05:33;;;;;;;47.83;35.88;;;;;;;;;;10289642;28;20445;-58
2021/11/06 11:10:31;;;;;;;48.13;36.90;;;;;;;;;;10287434;28;20096;-57
2021/11/06 11:15:30;;;;;;;42.05;34.80;;;;;;;;;;10288733;28;20469;-57
2021/11/06 11:20:30;;;;;;;52.70;38.17;;;;;;;;;;10298808;28;20588;-57
2021/11/06 11:25:29;;;;;;;50.08;37.72;;;;;;;;;;10302750;28;20079;-56
2021/11/06 11:30:27;;;;;;;52.22;39.45;;;;;;;;;;10295400;28;20088;-57
2021/11/06 11:35:26;;;;;;;81.45;58.72;;;;;;;;;;10282875;28;20086;-57
2021/11/06 11:40:29;;;;;;;43.42;33.63;;;;;;;;;;10288279;28;20399;-57
2021/11/06 11:45:32;;;;;;;94.45;62.90;;;;;;;;;;10288211;28;20533;-57
2021/11/06 11:50:35;;;;;;;55.15;40.88;;;;;;;;;;10288129;28;20534;-57
2021/11/06 11:55:36;;;;;;;51.92;37.38;;;;;;;;;;10276404;28;20068;-57
2021/11/06 12:00:38;;;;;;;43.38;32.88;;;;;;;;;;10277138;28;20136;-57
2021/11/06 12:05:38;;;;;;;42.67;30.70;;;;;;;;;;10287457;28;20073;-57
2021/11/06 12:10:38;;;;;;;52.40;35.60;;;;;;;;;;10284696;28;20076;-57
2021/11/06 12:15:53;;;;;;;42.25;31.92;;;;;;;;;;10286898;28;20395;-57
2021/11/06 12:20:52;;;;;;;38.13;30.55;;;;;;;;;;10301014;28;20079;-54
2021/11/06 12:26:11;;;;;;;37.72;29.13;;;;;;;;;;10298245;28;20524;-58
2021/11/06 12:31:28;;;;;;;39.53;31.30;;;;;;;;;;10292894;28;20072;-53
2021/11/06 12:36:27;;;;;;;40.17;30.30;;;;;;;;;;10274330;28;20095;-57
2021/11/06 12:41:27;;;;;;;40.05;31.65;;;;;;;;;;10280101;28;20064;-56
2021/11/06 12:46:27;;;;;;;34.97;27.23;;;;;;;;;;10280482;28;20076;-57
2021/11/06 12:51:27;;;;;;;36.97;29.17;;;;;;;;;;10284204;28;20079;-57
2021/11/06 12:56:29;;;;;;;34.30;27.05;;;;;;;;;;10283588;28;20497;-57
2021/11/06 13:01:29;;;;;;;32.45;27.38;;;;;;;;;;10284182;28;20072;-58
2021/11/06 13:06:29;;;;;;;34.53;25.60;;;;;;;;;;10284998;28;20079;-56
2021/11/06 13:11:42;;;;;;;30.73;25.42;;;;;;;;;;10287632;28;20087;-56
2021/11/06 13:16:56;;;;;;;36.40;28.33;;;;;;;;;;10295909;28;20068;-57
2021/11/06 13:21:55;;;;;;;34.97;27.47;;;;;;;;;;10300843;28;20184;-57
2021/11/06 13:26:53;;;;;;;39.63;29.67;;;;;;;;;;10291782;28;20170;-57
2021/11/06 13:32:02;;;;;;;40.92;27.63;;;;;;;;;;10289193;28;20525;-58
2021/11/06 13:37:00;;;;;;;32.15;26.95;;;;;;;;;;10290099;28;20144;-57
2021/11/06 13:41:58;;;;;;;40.00;29.05;;;;;;;;;;10281812;28;20313;-56
2021/11/06 13:46:59;;;;;;;46.53;34.47;;;;;;;;;;10273960;28;20099;-58
2021/11/06 13:52:00;;;;;;;44.25;32.38;;;;;;;;;;10281969;28;20072;-57
2021/11/06 13:57:03;;;;;;;38.75;30.83;;;;;;;;;;10289414;28;20080;-58
2021/11/06 14:02:04;;;;;;;35.35;29.10;;;;;;;;;;10281503;28;20463;-57
2021/11/06 14:07:11;;;;;;;38.53;27.08;;;;;;;;;;10284215;28;20437;-57
2021/11/06 14:12:10;;;;;;;32.53;25.25;;;;;;;;;;10290820;28;20083;-57
2021/11/06 14:17:09;;;;;;;44.03;31.33;;;;;;;;;;10292002;28;20455;-56
2021/11/06 14:22:09;;;;;;;37.25;30.75;;;;;;;;;;10292130;28;20076;-58
2021/11/06 14:27:10;;;;;;;44.03;33.03;;;;;;;;;;10302091;28;20060;-56
2021/11/06 14:32:10;;;;;;;37.00;27.67;;;;;;;;;;10297050;28;20079;-55
2021/11/06 14:37:10;;;;;;;36.70;27.73;;;;;;;;;;10295892;28;20065;-57
2021/11/06 14:42:09;;;;;;;38.47;31.08;;;;;;;;;;10287667;28;20392;-57
2021/11/06 14:47:15;;;;;;;37.92;29.17;;;;;;;;;;10290229;28;20045;-57
2021/11/06 14:52:16;;;;;;;43.47;30.00;;;;;;;;;;10289824;28;20072;-57
2021/11/06 14:57:15;;;;;;;41.50;31.10;;;;;;;;;;10288836;28;20068;-57
2021/11/06 15:02:23;;;;;;;38.72;31.15;;;;;;;;;;10288610;28;20324;-57
2021/11/06 15:07:23;;;;;;;51.45;41.20;;;;;;;;;;10286726;28;20064;-57
2021/11/06 15:12:21;;;;;;;46.03;40.45;;;;;;;;;;10289759;28;20084;-57
2021/11/06 15:17:20;;;;;;;43.33;34.00;;;;;;;;;;10290260;28;20064;-57
2021/11/06 15:22:24;;;;;;;37.20;29.48;;;;;;;;;;10291418;28;20451;-57
2021/11/06 15:27:25;;;;;;;38.03;29.67;;;;;;;;;;10299163;28;20118;-57
2021/11/06 15:32:23;;;;;;;44.58;36.15;;;;;;;;;;10296753;28;20469;-57
2021/11/06 15:37:22;;;;;;;42.35;32.92;;;;;;;;;;10278143;28;20064;-56
2021/11/06 15:42:21;;;;;;;54.00;39.88;;;;;;;;;;10277731;28;20091;-57
2021/11/06 15:47:20;;;;;;;47.63;37.30;;;;;;;;;;10282960;28;20064;-57
2021/11/06 15:52:19;;;;;;;49.70;37.65;;;;;;;;;;10287447;28;20064;-57
2021/11/06 15:57:17;;;;;;;61.05;44.08;;;;;;;;;;10287597;28;20068;-56
2021/11/06 16:02:15;;;;;;;57.92;40.90;;;;;;;;;;10287206;28;20066;-57
2021/11/06 16:07:17;;;;;;;50.03;36.88;;;;;;;;;;10285300;28;20068;-56
2021/11/06 16:12:16;;;;;;;43.78;33.70;;;;;;;;;;10286020;28;20076;-56
2021/11/06 16:17:15;;;;;;;52.00;35.85;;;;;;;;;;10287767;28;20068;-56
2021/11/06 16:22:20;;;;;;;74.65;53.53;;;;;;;;;;10288422;28;20068;-57
2021/11/06 16:27:18;;;;;;;;;;;;;;;;;;10297495;28;20064;-57
2021/11/06 16:32:16;;;;;;;53.88;38.40;;;;;;;;;;10281187;28;19971;-57
2021/11/06 16:37:16;;;;;;;46.08;34.67;;;;;;;;;;10275836;28;20497;-57
2021/11/06 16:42:14;;;;;;;61.20;41.88;;;;;;;;;;10275809;28;20556;-57
2021/11/06 16:47:13;;;;;;;61.08;46.05;;;;;;;;;;10275681;28;20091;-57
2021/11/06 16:52:11;;;;;;;41.75;33.28;;;;;;;;;;10275264;28;20068;-57
2021/11/06 16:57:11;;;;;;;39.22;29.30;;;;;;;;;;10275295;28;20073;-58
2021/11/06 17:02:09;;;;;;;40.75;30.33;;;;;;;;;;10279149;28;20060;-57
2021/11/06 17:07:07;;;;;;;33.28;26.17;;;;;;;;;;10284337;28;20048;-57
2021/11/06 17:12:06;;;;;;;29.38;22.35;;;;;;;;;;10284438;28;20072;-56
2021/11/06 17:17:06;;;;;;;27.25;21.00;;;;;;;;;;10285283;28;20496;-56
2021/11/06 17:22:04;;;;;;;25.65;19.60;;;;;;;;;;10286044;28;20068;-56
2021/11/06 17:27:04;;;;;;;24.45;18.98;;;;;;;;;;10302267;28;20044;-57
2021/11/06 17:32:03;;;;;;;27.80;18.40;;;;;;;;;;10301440;28;20083;-56
2021/11/06 17:37:02;;;;;;;26.08;18.55;;;;;;;;;;10285627;28;20065;-56
2021/11/06 17:42:01;;;;;;;28.30;19.15;;;;;;;;;;10293136;28;20076;-55
2021/11/06 17:46:59;;;;;;;28.25;18.00;;;;;;;;;;10292559;28;20056;-56
2021/11/06 17:52:06;;;;;;;38.22;26.25;;;;;;;;;;10292015;28;20080;-56
2021/11/06 17:57:06;;;;;;;52.47;32.78;;;;;;;;;;10288038;28;20454;-55
2021/11/06 18:02:04;;;;;;;38.13;24.75;;;;;;;;;;10286608;28;20064;-54
2021/11/06 18:07:03;;;;;;;33.13;23.42;;;;;;;;;;10290529;28;20056;-55
2021/11/06 18:12:01;;;;;;;24.23;15.13;;;;;;;;;;10298245;28;20068;-56
2021/11/06 18:17:01;;;;;;;21.23;15.23;;;;;;;;;;10298244;28;20076;-54
2021/11/06 18:21:59;;;;;;;20.30;13.02;;;;;;;;;;10282380;28;20057;-56
2021/11/06 18:26:58;;;;;;;30.95;13.55;;;;;;;;;;10285501;28;20060;-58
2021/11/06 18:31:56;;;;;;;25.63;13.68;;;;;;;;;;10287933;28;20461;-55
2021/11/06 18:36:56;;;;;;;23.15;13.52;;;;;;;;;;10302667;28;20065;-55
2021/11/06 18:41:56;;;;;;;24.48;13.43;;;;;;;;;;10281586;28;20099;-57
2021/11/06 18:46:57;;;;;;;18.27;11.07;;;;;;;;;;10296408;28;20069;-56
2021/11/06 18:51:56;;;;;;;15.75;10.25;;;;;;;;;;10288190;28;20067;-57
2021/11/06 18:56:55;;;;;;;16.80;11.55;;;;;;;;;;10276866;28;20068;-57
2021/11/06 19:01:53;;;;;;;19.40;11.10;;;;;;;;;;10290886;28;20091;-57
2021/11/06 19:06:51;;;;;;;18.40;11.90;;;;;;;;;;10278124;28;20513;-57
2021/11/06 19:11:51;;;;;;;17.75;13.55;;;;;;;;;;10298090;28;20083;-57
2021/11/06 19:16:49;;;;;;;13.88;10.35;;;;;;;;;;10285560;28;20069;-57
2021/11/06 19:21:48;;;;;;;18.65;13.15;;;;;;;;;;10288594;28;20079;-55
2021/11/06 19:26:53;;;;;;;15.73;9.65;;;;;;;;;;10279790;28;20068;-55
2021/11/06 19:31:53;;;;;;;31.90;10.88;;;;;;;;;;10287340;28;20095;-49
2021/11/06 19:36:51;;;;;;;18.60;10.55;;;;;;;;;;10304166;28;20064;-55
2021/11/06 19:41:51;;;;;;;23.42;11.10;;;;;;;;;;10306404;28;20076;-58
2021/11/06 19:46:51;;;;;;;17.92;9.95;;;;;;;;;;10277938;28;20104;-56
2021/11/06 19:51:51;;;;;;;59.97;40.75;;;;;;;;;;10278715;28;20599;-56
2021/11/06 19:56:50;;;;;;;26.42;15.57;;;;;;;;;;10287071;28;20513;-55
2021/11/06 20:01:49;;;;;;;26.48;17.00;;;;;;;;;;10288429;28;20072;-57
2021/11/06 20:06:47;;;;;;;17.98;12.55;;;;;;;;;;10282152;28;20454;-55
2021/11/06 20:11:49;;;;;;;28.20;19.77;;;;;;;;;;10280943;28;20168;-55
2021/11/06 20:16:47;;;;;;;17.90;13.98;;;;;;;;;;10283624;28;20309;-55
2021/11/06 20:21:46;;;;;;;20.70;12.95;;;;;;;;;;10289093;28;20060;-55
2021/11/06 20:26:44;;;;;;;17.58;13.00;;;;;;;;;;10292248;28;20072;-55
2021/11/06 20:31:44;;;;;;;23.05;13.50;;;;;;;;;;10287738;28;20080;-56
2021/11/06 20:36:42;;;;;;;34.03;22.40;;;;;;;;;;10301715;28;20522;-56
2021/11/06 20:41:41;;;;;;;28.92;20.00;;;;;;;;;;10278119;28;20067;-54
2021/11/06 20:46:45;;;;;;;22.48;14.63;;;;;;;;;;10299874;28;20080;-53
2021/11/06 20:51:46;;;;;;;25.70;16.00;;;;;;;;;;10285878;28;20075;-54
2021/11/06 20:56:44;;;;;;;30.00;18.20;;;;;;;;;;10292017;28;20453;-55
2021/11/06 21:01:43;;;;;;;30.92;19.30;;;;;;;;;;10290227;28;20083;-56
2021/11/06 21:06:41;;;;;;;28.88;20.30;;;;;;;;;;10297029;28;20062;-55
2021/11/06 21:11:53;;;;;;;34.90;23.55;;;;;;;;;;10282006;28;20476;-52
2021/11/06 21:17:07;;;;;;;29.45;21.60;;;;;;;;;;10296487;28;20079;-54
2021/11/06 21:22:07;;;;;;;30.65;21.75;;;;;;;;;;10281502;28;20065;-55
2021/11/06 21:27:07;;;;;;;20.60;14.70;;;;;;;;;;10285674;28;20057;-54
2021/11/06 21:32:06;;;;;;;26.92;20.02;;;;;;;;;;10275703;28;20080;-55
2021/11/06 21:37:10;;;;;;;24.10;16.08;;;;;;;;;;10274140;28;20081;-56
2021/11/06 21:42:12;;;;;;;20.90;15.30;;;;;;;;;;10290036;28;20072;-57
2021/11/06 21:47:11;;;;;;;26.52;17.23;;;;;;;;;;10296451;28;20056;-56
2021/11/06 21:52:10;;;;;;;23.60;14.25;;;;;;;;;;10281173;28;20076;-59
2021/11/06 21:57:10;;;;;;;25.58;16.45;;;;;;;;;;10284576;28;20481;-56
2021/11/06 22:02:09;;;;;;;24.20;14.65;;;;;;;;;;10279082;28;20080;-56
2021/11/06 22:07:08;;;;;;;23.08;15.55;;;;;;;;;;10292456;28;20079;-55
2021/11/06 22:12:08;;;;;;;24.02;14.60;;;;;;;;;;10299304;28;20076;-56
2021/11/06 22:17:08;;;;;;;16.88;13.10;;;;;;;;;;10320919;28;20063;-56
2021/11/06 22:22:06;;;;;;;19.67;14.20;;;;;;;;;;10320634;28;20064;-55
2021/11/06 22:27:05;;;;;;;20.50;14.18;;;;;;;;;;10297517;28;20084;-55
2021/11/06 22:32:04;;;;;;;19.83;12.45;;;;;;;;;;10280167;28;20061;-53
2021/11/06 22:37:04;;;;;;;18.65;13.65;;;;;;;;;;10280461;28;20085;-57
2021/11/06 22:42:02;;;;;;;18.40;13.85;;;;;;;;;;10280270;28;20065;-55
2021/11/06 22:47:01;;;;;;;23.15;14.60;;;;;;;;;;10280203;28;20044;-54
2021/11/06 22:51:59;;;;;;;24.30;15.35;;;;;;;;;;10286950;28;20099;-55
2021/11/06 22:57:09;;;;;;;28.35;15.18;;;;;;;;;;10290155;28;20512;-57
2021/11/06 23:07:27;;;;;;;16.10;13.63;;;;;;;;;;10279298;28;20045;-56
2021/11/06 23:12:27;;;;;;;20.00;13.27;;;;;;;;;;10279230;28;20095;-57
2021/11/06 23:17:25;;;;;;;17.88;13.55;;;;;;;;;;10278913;28;20068;-57
2021/11/06 23:22:23;;;;;;;18.00;13.35;;;;;;;;;;10277798;28;20536;-55
2021/11/06 23:27:22;;;;;;;19.67;14.10;;;;;;;;;;10277798;28;20529;-56
2021/11/06 23:32:22;;;;;;;25.25;13.80;;;;;;;;;;10277871;28;20080;-56
2021/11/06 23:37:20;;;;;;;15.65;12.85;;;;;;;;;;10277991;28;20069;-53
2021/11/06 23:42:19;;;;;;;20.75;12.35;;;;;;;;;;10277857;28;20492;-54
2021/11/06 23:47:17;;;;;;;18.08;11.45;;;;;;;;;;10277544;28;20076;-56
2021/11/06 23:52:23;;;;;;;21.65;14.50;;;;;;;;;;10281785;28;20482;-56
2021/11/06 23:57:30;;;;;;;18.65;11.32;;;;;;;;;;10297365;28;20095;-55
